EWG7KD LOWW-EDDL
Flight info
| Callsign | EWG7KD |
|---|---|
| Flight time | 1h 11m |
| Altitude | 36000 |
| Route | BUWUT2B/16 BUWUT DCT DITIS DCT RAPET T843 VELIS DCT AMETU T852 EKSAK/N0394F260 T852 TINSA T854 DOMUX DOMUX1A |
| Aircraft | A320/M-SDE3FGHIRWY/LB1 |
Departure
| Time | 2026-05-04 19:23 |
|---|---|
| Airport | Vienna International Airport (LOWW) |
Arrival
| Time | 2026-05-04 20:34 |
|---|---|
| Airport | Düsseldorf Airport (EDDL) |
| Time | Latitude | Longitude | Altitude | Speed | Heading |
|---|---|---|---|---|---|
| 2026-05-04 18:48 | 48.12018 | 16.55610 | 624 ft | 0 kts | 116° |
| 2026-05-04 19:11 | 48.12023 | 16.55595 | 620 ft | 4 kts | 117° |
| 2026-05-04 19:11 | 48.12037 | 16.55560 | 620 ft | 4 kts | 133° |
| 2026-05-04 19:12 | 48.12056 | 16.55541 | 620 ft | 4 kts | 189° |
| 2026-05-04 19:12 | 48.12062 | 16.55543 | 620 ft | 0 kts | 205° |
| 2026-05-04 19:14 | 48.12041 | 16.55528 | 622 ft | 6 kts | 205° |
| 2026-05-04 19:14 | 48.11978 | 16.55484 | 614 ft | 14 kts | 205° |
| 2026-05-04 19:15 | 48.11898 | 16.55438 | 609 ft | 12 kts | 188° |
| 2026-05-04 19:15 | 48.11836 | 16.55412 | 609 ft | 9 kts | 225° |
| 2026-05-04 19:15 | 48.11842 | 16.55329 | 612 ft | 11 kts | 295° |
| 2026-05-04 19:15 | 48.11886 | 16.55196 | 615 ft | 14 kts | 296° |
| 2026-05-04 19:16 | 48.11942 | 16.55025 | 620 ft | 23 kts | 296° |
| 2026-05-04 19:16 | 48.12011 | 16.54810 | 620 ft | 22 kts | 295° |
| 2026-05-04 19:16 | 48.12075 | 16.54615 | 609 ft | 20 kts | 296° |
| 2026-05-04 19:16 | 48.12141 | 16.54413 | 621 ft | 23 kts | 296° |
| 2026-05-04 19:17 | 48.12215 | 16.54185 | 617 ft | 26 kts | 297° |
| 2026-05-04 19:17 | 48.12288 | 16.53961 | 616 ft | 23 kts | 296° |
| 2026-05-04 19:17 | 48.12358 | 16.53746 | 612 ft | 20 kts | 296° |
| 2026-05-04 19:17 | 48.12376 | 16.53690 | 612 ft | 0 kts | 296° |
| 2026-05-04 19:19 | 48.12377 | 16.53687 | 611 ft | 2 kts | 296° |
| 2026-05-04 19:19 | 48.12387 | 16.53658 | 619 ft | 4 kts | 296° |
| 2026-05-04 19:19 | 48.12411 | 16.53585 | 624 ft | 8 kts | 296° |
| 2026-05-04 19:19 | 48.12432 | 16.53513 | 612 ft | 7 kts | 284° |
| 2026-05-04 19:20 | 48.12419 | 16.53457 | 620 ft | 5 kts | 227° |
| 2026-05-04 19:20 | 48.12393 | 16.53435 | 615 ft | 3 kts | 205° |
| 2026-05-04 19:20 | 48.12388 | 16.53432 | 615 ft | 0 kts | 205° |
| 2026-05-04 19:20 | 48.12387 | 16.53431 | 615 ft | 2 kts | 205° |
| 2026-05-04 19:21 | 48.12340 | 16.53398 | 609 ft | 10 kts | 206° |
| 2026-05-04 19:21 | 48.12284 | 16.53359 | 612 ft | 6 kts | 202° |
| 2026-05-04 19:21 | 48.12264 | 16.53389 | 612 ft | 0 kts | 114° |
| 2026-05-04 19:22 | 48.12217 | 16.53538 | 615 ft | 49 kts | 116° |
| 2026-05-04 19:23 | 48.11968 | 16.54299 | 619 ft | 111 kts | 116° |
| 2026-05-04 19:23 | 48.11552 | 16.55573 | 623 ft | 159 kts | 118° |
| 2026-05-04 19:23 | 48.11055 | 16.57045 | 1239 ft | 157 kts | 120° |
| 2026-05-04 19:23 | 48.10576 | 16.58520 | 1904 ft | 158 kts | 124° |
| 2026-05-04 19:24 | 48.10054 | 16.60108 | 2205 ft | 181 kts | 123° |
| 2026-05-04 19:24 | 48.09763 | 16.62064 | 2589 ft | 209 kts | 96° |
| 2026-05-04 19:24 | 48.10180 | 16.64230 | 3161 ft | 227 kts | 66° |
| 2026-05-04 19:24 | 48.11006 | 16.66353 | 3474 ft | 249 kts | 64° |
| 2026-05-04 19:25 | 48.11913 | 16.68716 | 3833 ft | 273 kts | 64° |
| 2026-05-04 19:25 | 48.12883 | 16.71246 | 4495 ft | 285 kts | 63° |
| 2026-05-04 19:25 | 48.13875 | 16.73830 | 5268 ft | 294 kts | 62° |
| 2026-05-04 19:25 | 48.14974 | 16.76555 | 5643 ft | 319 kts | 54° |
| 2026-05-04 19:26 | 48.16728 | 16.78750 | 5941 ft | 344 kts | 25° |
| 2026-05-04 19:26 | 48.19123 | 16.79566 | 6208 ft | 363 kts | 358° |
| 2026-05-04 19:26 | 48.21670 | 16.79105 | 6453 ft | 371 kts | 348° |
| 2026-05-04 19:26 | 48.23316 | 16.78582 | 6736 ft | 361 kts | 345° |
| 2026-05-04 19:27 | 48.26464 | 16.77337 | 8442 ft | 339 kts | 343° |
| 2026-05-04 19:27 | 48.27976 | 16.76709 | 9480 ft | 325 kts | 343° |
| 2026-05-04 19:27 | 48.30090 | 16.75849 | 10673 ft | 319 kts | 343° |
| 2026-05-04 19:27 | 48.32309 | 16.74984 | 10962 ft | 340 kts | 344° |
| 2026-05-04 19:28 | 48.34610 | 16.73905 | 11455 ft | 350 kts | 335° |
| 2026-05-04 19:28 | 48.36807 | 16.72282 | 12130 ft | 354 kts | 330° |
| 2026-05-04 19:28 | 48.39009 | 16.70561 | 12855 ft | 357 kts | 330° |
| 2026-05-04 19:28 | 48.41202 | 16.68764 | 13570 ft | 359 kts | 324° |
| 2026-05-04 19:29 | 48.43133 | 16.66441 | 14195 ft | 359 kts | 312° |
| 2026-05-04 19:29 | 48.44703 | 16.63525 | 14807 ft | 359 kts | 300° |
| 2026-05-04 19:29 | 48.45831 | 16.60167 | 15434 ft | 359 kts | 288° |
| 2026-05-04 19:29 | 48.46701 | 16.56619 | 16066 ft | 361 kts | 288° |
| 2026-05-04 19:30 | 48.47577 | 16.53058 | 16701 ft | 364 kts | 288° |
| 2026-05-04 19:30 | 48.48463 | 16.49466 | 17330 ft | 367 kts | 288° |
| 2026-05-04 19:30 | 48.49358 | 16.45845 | 17946 ft | 370 kts | 288° |
| 2026-05-04 19:30 | 48.50260 | 16.42192 | 18498 ft | 373 kts | 288° |
| 2026-05-04 19:31 | 48.51170 | 16.38513 | 19027 ft | 375 kts | 288° |
| 2026-05-04 19:31 | 48.52084 | 16.34802 | 19552 ft | 378 kts | 288° |
| 2026-05-04 19:31 | 48.52991 | 16.31101 | 20075 ft | 381 kts | 288° |
| 2026-05-04 19:31 | 48.53911 | 16.27332 | 20577 ft | 383 kts | 289° |
| 2026-05-04 19:32 | 48.54834 | 16.23533 | 21072 ft | 386 kts | 289° |
| 2026-05-04 19:32 | 48.55757 | 16.19720 | 21580 ft | 389 kts | 289° |
| 2026-05-04 19:32 | 48.56681 | 16.15903 | 22064 ft | 391 kts | 289° |
| 2026-05-04 19:32 | 48.57627 | 16.12044 | 22551 ft | 394 kts | 290° |
| 2026-05-04 19:33 | 48.58662 | 16.08189 | 23033 ft | 396 kts | 292° |
| 2026-05-04 19:33 | 48.59766 | 16.04354 | 23498 ft | 399 kts | 293° |
| 2026-05-04 19:33 | 48.60905 | 16.00518 | 23894 ft | 401 kts | 293° |
| 2026-05-04 19:33 | 48.62058 | 15.96649 | 24282 ft | 403 kts | 293° |
| 2026-05-04 19:34 | 48.63187 | 15.92815 | 24668 ft | 405 kts | 293° |
| 2026-05-04 19:34 | 48.64327 | 15.88891 | 25053 ft | 407 kts | 292° |
| 2026-05-04 19:34 | 48.65454 | 15.84950 | 25439 ft | 409 kts | 292° |
| 2026-05-04 19:34 | 48.66575 | 15.80987 | 25839 ft | 410 kts | 292° |
| 2026-05-04 19:35 | 48.67691 | 15.77011 | 26224 ft | 411 kts | 292° |
| 2026-05-04 19:35 | 48.68811 | 15.73020 | 26602 ft | 413 kts | 292° |
| 2026-05-04 19:35 | 48.69943 | 15.68999 | 26967 ft | 415 kts | 292° |
| 2026-05-04 19:35 | 48.71077 | 15.64973 | 27316 ft | 417 kts | 292° |
| 2026-05-04 19:36 | 48.72218 | 15.60926 | 27677 ft | 419 kts | 292° |
| 2026-05-04 19:36 | 48.73352 | 15.56903 | 28030 ft | 421 kts | 292° |
| 2026-05-04 19:36 | 48.74503 | 15.52810 | 28381 ft | 423 kts | 292° |
| 2026-05-04 19:36 | 48.75656 | 15.48697 | 28718 ft | 425 kts | 292° |
| 2026-05-04 19:37 | 48.76815 | 15.44547 | 29052 ft | 426 kts | 292° |
| 2026-05-04 19:37 | 48.77963 | 15.40435 | 29367 ft | 429 kts | 291° |
| 2026-05-04 19:37 | 48.79129 | 15.36256 | 29648 ft | 431 kts | 291° |
| 2026-05-04 19:37 | 48.80361 | 15.32093 | 29942 ft | 434 kts | 297° |
| 2026-05-04 19:38 | 48.81978 | 15.28174 | 30185 ft | 437 kts | 304° |
| 2026-05-04 19:38 | 48.83755 | 15.24423 | 30432 ft | 439 kts | 304° |
| 2026-05-04 19:38 | 48.85528 | 15.20683 | 30675 ft | 440 kts | 304° |
| 2026-05-04 19:38 | 48.87319 | 15.16900 | 30933 ft | 442 kts | 304° |
| 2026-05-04 19:39 | 48.89119 | 15.13093 | 31215 ft | 442 kts | 304° |
| 2026-05-04 19:39 | 48.90915 | 15.09306 | 31583 ft | 441 kts | 304° |
| 2026-05-04 19:39 | 48.92737 | 15.05543 | 31946 ft | 440 kts | 304° |
| 2026-05-04 19:39 | 48.94570 | 15.01810 | 32275 ft | 440 kts | 304° |
| 2026-05-04 19:40 | 48.96407 | 14.98090 | 32617 ft | 439 kts | 304° |
| 2026-05-04 19:40 | 48.98237 | 14.94375 | 32950 ft | 438 kts | 304° |
| 2026-05-04 19:40 | 49.00059 | 14.90653 | 33292 ft | 437 kts | 304° |
| 2026-05-04 19:40 | 49.01866 | 14.86939 | 33699 ft | 435 kts | 304° |
| 2026-05-04 19:41 | 49.03661 | 14.83229 | 34063 ft | 433 kts | 303° |
| 2026-05-04 19:41 | 49.05445 | 14.79536 | 34365 ft | 432 kts | 303° |
| 2026-05-04 19:41 | 49.07226 | 14.75850 | 34644 ft | 431 kts | 304° |
| 2026-05-04 19:41 | 49.08984 | 14.72212 | 34921 ft | 431 kts | 304° |
| 2026-05-04 19:42 | 49.10770 | 14.68514 | 35182 ft | 431 kts | 303° |
| 2026-05-04 19:42 | 49.12338 | 14.64622 | 35393 ft | 428 kts | 295° |
| 2026-05-04 19:42 | 49.13726 | 14.60660 | 35620 ft | 427 kts | 295° |
| 2026-05-04 19:42 | 49.15125 | 14.56645 | 35844 ft | 427 kts | 295° |
| 2026-05-04 19:43 | 49.16521 | 14.52625 | 35923 ft | 425 kts | 295° |
| 2026-05-04 19:43 | 49.19270 | 14.44688 | 35931 ft | 423 kts | 295° |
| 2026-05-04 19:44 | 49.22023 | 14.36724 | 35935 ft | 423 kts | 295° |
| 2026-05-04 19:44 | 49.24771 | 14.28748 | 35936 ft | 424 kts | 295° |
| 2026-05-04 19:45 | 49.27516 | 14.20760 | 35940 ft | 424 kts | 295° |
| 2026-05-04 19:45 | 49.30255 | 14.12758 | 35938 ft | 423 kts | 295° |
| 2026-05-04 19:46 | 49.32962 | 14.04810 | 35931 ft | 423 kts | 295° |
| 2026-05-04 19:46 | 49.35687 | 13.96793 | 35940 ft | 423 kts | 295° |
| 2026-05-04 19:47 | 49.38404 | 13.88797 | 35943 ft | 423 kts | 295° |
| 2026-05-04 19:47 | 49.41117 | 13.80792 | 35937 ft | 422 kts | 294° |
| 2026-05-04 19:48 | 49.43813 | 13.72776 | 35930 ft | 422 kts | 294° |
| 2026-05-04 19:48 | 49.46507 | 13.64738 | 35930 ft | 422 kts | 294° |
| 2026-05-04 19:49 | 49.49183 | 13.56735 | 35931 ft | 422 kts | 294° |
| 2026-05-04 19:49 | 49.51864 | 13.48718 | 35940 ft | 423 kts | 294° |
| 2026-05-04 19:50 | 49.54557 | 13.40649 | 35941 ft | 423 kts | 294° |
| 2026-05-04 19:50 | 49.57236 | 13.32582 | 35938 ft | 423 kts | 294° |
| 2026-05-04 19:51 | 49.59910 | 13.24499 | 35931 ft | 423 kts | 294° |
| 2026-05-04 19:51 | 49.62592 | 13.16343 | 35948 ft | 432 kts | 294° |
| 2026-05-04 19:52 | 49.65325 | 13.08017 | 35941 ft | 434 kts | 294° |
| 2026-05-04 19:52 | 49.68037 | 12.99721 | 35948 ft | 435 kts | 294° |
| 2026-05-04 19:53 | 49.70757 | 12.91388 | 35948 ft | 434 kts | 294° |
| 2026-05-04 19:53 | 49.73480 | 12.83048 | 35949 ft | 434 kts | 294° |
| 2026-05-04 19:54 | 49.76191 | 12.74708 | 35947 ft | 433 kts | 294° |
| 2026-05-04 19:54 | 49.78891 | 12.66365 | 35962 ft | 433 kts | 293° |
| 2026-05-04 19:55 | 49.81589 | 12.57991 | 35950 ft | 433 kts | 293° |
| 2026-05-04 19:55 | 49.84254 | 12.49673 | 35947 ft | 434 kts | 293° |
| 2026-05-04 19:56 | 49.86926 | 12.41284 | 35945 ft | 433 kts | 293° |
| 2026-05-04 19:56 | 49.89586 | 12.32936 | 35945 ft | 434 kts | 293° |
| 2026-05-04 19:57 | 49.92259 | 12.24524 | 35937 ft | 434 kts | 292° |
| 2026-05-04 19:57 | 49.94924 | 12.16105 | 35937 ft | 435 kts | 292° |
| 2026-05-04 19:58 | 49.97595 | 12.07669 | 35939 ft | 435 kts | 292° |
| 2026-05-04 19:58 | 50.00260 | 11.99210 | 35949 ft | 435 kts | 292° |
| 2026-05-04 19:59 | 50.02907 | 11.90783 | 35973 ft | 436 kts | 292° |
| 2026-05-04 19:59 | 50.05565 | 11.82294 | 35990 ft | 436 kts | 292° |
| 2026-05-04 20:00 | 50.08214 | 11.73846 | 35990 ft | 435 kts | 292° |
| 2026-05-04 20:00 | 50.10852 | 11.65364 | 35987 ft | 435 kts | 292° |
| 2026-05-04 20:01 | 50.13479 | 11.56864 | 35988 ft | 435 kts | 292° |
| 2026-05-04 20:01 | 50.16104 | 11.48355 | 35999 ft | 434 kts | 292° |
| 2026-05-04 20:02 | 50.18706 | 11.39903 | 35998 ft | 434 kts | 292° |
| 2026-05-04 20:02 | 50.21313 | 11.31413 | 35992 ft | 434 kts | 292° |
| 2026-05-04 20:03 | 50.23918 | 11.22907 | 35984 ft | 433 kts | 292° |
| 2026-05-04 20:03 | 50.26493 | 11.14437 | 35986 ft | 433 kts | 292° |
| 2026-05-04 20:04 | 50.29077 | 11.05906 | 35994 ft | 433 kts | 291° |
| 2026-05-04 20:04 | 50.31641 | 10.97434 | 35988 ft | 433 kts | 291° |
| 2026-05-04 20:05 | 50.34225 | 10.88898 | 35987 ft | 433 kts | 291° |
| 2026-05-04 20:05 | 50.36790 | 10.80358 | 35984 ft | 433 kts | 291° |
| 2026-05-04 20:06 | 50.39350 | 10.71781 | 35998 ft | 433 kts | 291° |
| 2026-05-04 20:06 | 50.41917 | 10.63271 | 36005 ft | 434 kts | 291° |
| 2026-05-04 20:07 | 50.44592 | 10.54788 | 35996 ft | 434 kts | 292° |
| 2026-05-04 20:07 | 50.47266 | 10.46287 | 35990 ft | 433 kts | 290° |
| 2026-05-04 20:08 | 50.49747 | 10.37663 | 35987 ft | 433 kts | 291° |
| 2026-05-04 20:08 | 50.52349 | 10.29115 | 35992 ft | 434 kts | 291° |
| 2026-05-04 20:09 | 50.54956 | 10.20616 | 36007 ft | 434 kts | 291° |
| 2026-05-04 20:09 | 50.57544 | 10.12031 | 36000 ft | 434 kts | 290° |
| 2026-05-04 20:10 | 50.60110 | 10.03419 | 35996 ft | 434 kts | 290° |
| 2026-05-04 20:10 | 50.62657 | 9.94845 | 35995 ft | 434 kts | 290° |
| 2026-05-04 20:11 | 50.65212 | 9.86221 | 35994 ft | 434 kts | 290° |
| 2026-05-04 20:11 | 50.67333 | 9.79039 | 36014 ft | 434 kts | 290° |
| 2026-05-04 20:12 | 50.69881 | 9.70383 | 36016 ft | 433 kts | 290° |
| 2026-05-04 20:12 | 50.72824 | 9.60347 | 36001 ft | 433 kts | 290° |
| 2026-05-04 20:13 | 50.74926 | 9.53175 | 36010 ft | 432 kts | 290° |
| 2026-05-04 20:13 | 50.77441 | 9.44550 | 36006 ft | 432 kts | 290° |
| 2026-05-04 20:14 | 50.79944 | 9.35911 | 36013 ft | 432 kts | 290° |
| 2026-05-04 20:14 | 50.82454 | 9.27224 | 36004 ft | 433 kts | 289° |
| 2026-05-04 20:15 | 50.84937 | 9.18598 | 35962 ft | 434 kts | 289° |
| 2026-05-04 20:15 | 50.86189 | 9.14246 | 35703 ft | 433 kts | 289° |
| 2026-05-04 20:15 | 50.87441 | 9.09888 | 35138 ft | 435 kts | 289° |
| 2026-05-04 20:15 | 50.88698 | 9.05495 | 34285 ft | 438 kts | 289° |
| 2026-05-04 20:16 | 50.89964 | 9.01070 | 33339 ft | 443 kts | 290° |
| 2026-05-04 20:16 | 50.91406 | 8.96711 | 32272 ft | 450 kts | 294° |
| 2026-05-04 20:16 | 50.92927 | 8.92389 | 31218 ft | 456 kts | 295° |
| 2026-05-04 20:16 | 50.94503 | 8.88022 | 30570 ft | 453 kts | 296° |
| 2026-05-04 20:17 | 50.96104 | 8.83733 | 30250 ft | 450 kts | 296° |
| 2026-05-04 20:17 | 50.97712 | 8.79454 | 30002 ft | 451 kts | 296° |
| 2026-05-04 20:17 | 50.99307 | 8.75154 | 29714 ft | 452 kts | 296° |
| 2026-05-04 20:17 | 51.00880 | 8.70839 | 29434 ft | 451 kts | 296° |
| 2026-05-04 20:18 | 51.02418 | 8.66566 | 29158 ft | 448 kts | 295° |
| 2026-05-04 20:18 | 51.03954 | 8.62268 | 28883 ft | 446 kts | 295° |
| 2026-05-04 20:18 | 51.05483 | 8.57967 | 28602 ft | 444 kts | 295° |
| 2026-05-04 20:18 | 51.06995 | 8.53712 | 28115 ft | 439 kts | 295° |
| 2026-05-04 20:19 | 51.08496 | 8.49491 | 27424 ft | 436 kts | 295° |
| 2026-05-04 20:19 | 51.09986 | 8.45309 | 26765 ft | 432 kts | 295° |
| 2026-05-04 20:19 | 51.11441 | 8.41211 | 26134 ft | 429 kts | 295° |
| 2026-05-04 20:19 | 51.12905 | 8.37077 | 25490 ft | 425 kts | 295° |
| 2026-05-04 20:20 | 51.14351 | 8.32986 | 24871 ft | 422 kts | 296° |
| 2026-05-04 20:20 | 51.15792 | 8.28914 | 24246 ft | 419 kts | 296° |
| 2026-05-04 20:20 | 51.17222 | 8.24861 | 23628 ft | 417 kts | 296° |
| 2026-05-04 20:20 | 51.18617 | 8.20892 | 22956 ft | 414 kts | 296° |
| 2026-05-04 20:21 | 51.20019 | 8.16903 | 22384 ft | 408 kts | 296° |
| 2026-05-04 20:21 | 51.21406 | 8.12960 | 21839 ft | 403 kts | 296° |
| 2026-05-04 20:21 | 51.24111 | 8.05249 | 20826 ft | 394 kts | 296° |
| 2026-05-04 20:22 | 51.25440 | 8.01450 | 20348 ft | 389 kts | 296° |
| 2026-05-04 20:22 | 51.26703 | 7.97713 | 19879 ft | 387 kts | 291° |
| 2026-05-04 20:22 | 51.27772 | 7.93750 | 19193 ft | 390 kts | 290° |
| 2026-05-04 20:22 | 51.28828 | 7.89674 | 18105 ft | 402 kts | 289° |
| 2026-05-04 20:23 | 51.29885 | 7.85482 | 16992 ft | 411 kts | 289° |
| 2026-05-04 20:23 | 51.30947 | 7.81241 | 16238 ft | 409 kts | 289° |
| 2026-05-04 20:23 | 51.32007 | 7.77027 | 15582 ft | 406 kts | 289° |
| 2026-05-04 20:23 | 51.33058 | 7.72859 | 14942 ft | 402 kts | 289° |
| 2026-05-04 20:24 | 51.34103 | 7.68730 | 14330 ft | 399 kts | 289° |
| 2026-05-04 20:24 | 51.35125 | 7.64695 | 13722 ft | 395 kts | 289° |
| 2026-05-04 20:24 | 51.36173 | 7.60541 | 12751 ft | 399 kts | 289° |
| 2026-05-04 20:24 | 51.37193 | 7.56491 | 12062 ft | 396 kts | 289° |
| 2026-05-04 20:25 | 51.38214 | 7.52423 | 11406 ft | 392 kts | 289° |
| 2026-05-04 20:25 | 51.39225 | 7.48387 | 10777 ft | 387 kts | 289° |
| 2026-05-04 20:25 | 51.40198 | 7.44513 | 10592 ft | 360 kts | 289° |
| 2026-05-04 20:25 | 51.41094 | 7.40945 | 10444 ft | 330 kts | 289° |
| 2026-05-04 20:26 | 51.41915 | 7.37667 | 10320 ft | 305 kts | 288° |
| 2026-05-04 20:26 | 51.42671 | 7.34597 | 9996 ft | 289 kts | 285° |
| 2026-05-04 20:26 | 51.43183 | 7.31522 | 9422 ft | 282 kts | 279° |
| 2026-05-04 20:26 | 51.43601 | 7.28474 | 8785 ft | 278 kts | 278° |
| 2026-05-04 20:27 | 51.44002 | 7.25479 | 8154 ft | 275 kts | 278° |
| 2026-05-04 20:27 | 51.44399 | 7.22517 | 7777 ft | 263 kts | 278° |
| 2026-05-04 20:27 | 51.44773 | 7.19754 | 7455 ft | 250 kts | 279° |
| 2026-05-04 20:27 | 51.45101 | 7.17064 | 7129 ft | 238 kts | 273° |
| 2026-05-04 20:28 | 51.45127 | 7.14467 | 6704 ft | 231 kts | 264° |
| 2026-05-04 20:28 | 51.45042 | 7.11908 | 6235 ft | 229 kts | 264° |
| 2026-05-04 20:28 | 51.44780 | 7.09440 | 5726 ft | 221 kts | 239° |
| 2026-05-04 20:28 | 51.43888 | 7.07516 | 5260 ft | 218 kts | 229° |
| 2026-05-04 20:29 | 51.42935 | 7.05609 | 4843 ft | 216 kts | 231° |
| 2026-05-04 20:29 | 51.42025 | 7.03701 | 4400 ft | 215 kts | 231° |
| 2026-05-04 20:29 | 51.41129 | 7.01802 | 3975 ft | 212 kts | 232° |
| 2026-05-04 20:29 | 51.40244 | 6.99924 | 3596 ft | 207 kts | 231° |
| 2026-05-04 20:30 | 51.39394 | 6.98121 | 3317 ft | 198 kts | 231° |
| 2026-05-04 20:30 | 51.38597 | 6.96433 | 3067 ft | 184 kts | 231° |
| 2026-05-04 20:30 | 51.37859 | 6.94869 | 2819 ft | 170 kts | 231° |
| 2026-05-04 20:30 | 51.37185 | 6.93444 | 2599 ft | 152 kts | 231° |
| 2026-05-04 20:31 | 51.36570 | 6.92144 | 2398 ft | 141 kts | 232° |
| 2026-05-04 20:31 | 51.35983 | 6.90906 | 2201 ft | 139 kts | 231° |
| 2026-05-04 20:31 | 51.35402 | 6.89678 | 2026 ft | 138 kts | 231° |
| 2026-05-04 20:31 | 51.34824 | 6.88459 | 1833 ft | 137 kts | 231° |
| 2026-05-04 20:32 | 51.34246 | 6.87240 | 1654 ft | 137 kts | 230° |
| 2026-05-04 20:32 | 51.33672 | 6.86030 | 1470 ft | 139 kts | 231° |
| 2026-05-04 20:32 | 51.33089 | 6.84801 | 1292 ft | 139 kts | 231° |
| 2026-05-04 20:32 | 51.32505 | 6.83579 | 1121 ft | 138 kts | 229° |
| 2026-05-04 20:33 | 51.31921 | 6.82349 | 945 ft | 139 kts | 230° |
| 2026-05-04 20:33 | 51.31338 | 6.81115 | 747 ft | 137 kts | 229° |
| 2026-05-04 20:33 | 51.30761 | 6.79899 | 536 ft | 138 kts | 229° |
| 2026-05-04 20:33 | 51.30186 | 6.78680 | 362 ft | 138 kts | 230° |
| 2026-05-04 20:34 | 51.29605 | 6.77462 | 167 ft | 137 kts | 231° |
| 2026-05-04 20:34 | 51.29080 | 6.76365 | 136 ft | 101 kts | 232° |
| 2026-05-04 20:34 | 51.28835 | 6.75857 | 128 ft | 29 kts | 229° |
| 2026-05-04 20:34 | 51.28694 | 6.75701 | 125 ft | 23 kts | 198° |
| 2026-05-04 20:35 | 51.28578 | 6.75681 | 122 ft | 18 kts | 167° |
| 2026-05-04 20:35 | 51.28487 | 6.75747 | 123 ft | 14 kts | 148° |
| 2026-05-04 20:35 | 51.28410 | 6.75839 | 124 ft | 12 kts | 143° |
| 2026-05-04 20:35 | 51.28349 | 6.75914 | 125 ft | 10 kts | 142° |
| 2026-05-04 20:36 | 51.28294 | 6.75980 | 127 ft | 11 kts | 143° |
| 2026-05-04 20:36 | 51.28217 | 6.76059 | 127 ft | 14 kts | 147° |
| 2026-05-04 20:36 | 51.28205 | 6.76179 | 123 ft | 12 kts | 55° |
| 2026-05-04 20:36 | 51.28256 | 6.76286 | 127 ft | 12 kts | 53° |
| 2026-05-04 20:37 | 51.28323 | 6.76427 | 123 ft | 18 kts | 52° |
| 2026-05-04 20:37 | 51.28402 | 6.76591 | 120 ft | 14 kts | 52° |
| 2026-05-04 20:37 | 51.28400 | 6.76690 | 124 ft | 9 kts | 135° |
| 2026-05-04 20:37 | 51.28346 | 6.76758 | 122 ft | 12 kts | 142° |
| 2026-05-04 20:38 | 51.28271 | 6.76845 | 127 ft | 13 kts | 158° |
| 2026-05-04 20:38 | 51.28178 | 6.76839 | 130 ft | 14 kts | 186° |
| 2026-05-04 20:38 | 51.28085 | 6.76801 | 129 ft | 11 kts | 198° |
| 2026-05-04 20:38 | 51.28058 | 6.76755 | 126 ft | 5 kts | 263° |
| 2026-05-04 20:39 | 51.28058 | 6.76733 | 128 ft | 0 kts | 272° |
| 2026-05-04 20:39 | 51.28059 | 6.76713 | 130 ft | 1 kts | 275° |
| 2026-05-04 20:39 | 51.28059 | 6.76708 | 130 ft | 0 kts | 275° |